sensor_id;sensor_type;location;lat;lon;timestamp;pressure;altitude;pressure_sealevel;temperature
20058;BMP180;10189;49.546;7.906;2024-03-22T00:02:07;98863.00;;;9.80
20058;BMP180;10189;49.546;7.906;2024-03-22T00:04:36;98853.00;;;9.70
20058;BMP180;10189;49.546;7.906;2024-03-22T00:07:02;98851.00;;;9.70
20058;BMP180;10189;49.546;7.906;2024-03-22T00:09:29;98852.00;;;9.70
20058;BMP180;10189;49.546;7.906;2024-03-22T00:11:55;98848.00;;;9.70
20058;BMP180;10189;49.546;7.906;2024-03-22T00:14:20;98849.00;;;9.70
20058;BMP180;10189;49.546;7.906;2024-03-22T00:16:47;98837.00;;;9.70
20058;BMP180;10189;49.546;7.906;2024-03-22T00:19:12;98845.00;;;9.70
20058;BMP180;10189;49.546;7.906;2024-03-22T00:21:38;98841.00;;;9.70
20058;BMP180;10189;49.546;7.906;2024-03-22T00:24:04;98835.00;;;9.70
20058;BMP180;10189;49.546;7.906;2024-03-22T00:26:30;98838.00;;;9.70
20058;BMP180;10189;49.546;7.906;2024-03-22T00:28:56;98825.00;;;9.60
20058;BMP180;10189;49.546;7.906;2024-03-22T00:31:25;98823.00;;;9.60
20058;BMP180;10189;49.546;7.906;2024-03-22T00:33:51;98826.00;;;9.70
20058;BMP180;10189;49.546;7.906;2024-03-22T00:36:17;98821.00;;;9.60
20058;BMP180;10189;49.546;7.906;2024-03-22T00:38:43;98818.00;;;9.60
20058;BMP180;10189;49.546;7.906;2024-03-22T00:41:09;98829.00;;;9.70
20058;BMP180;10189;49.546;7.906;2024-03-22T00:43:35;98830.00;;;9.60
20058;BMP180;10189;49.546;7.906;2024-03-22T00:46:01;98822.00;;;9.70
20058;BMP180;10189;49.546;7.906;2024-03-22T00:48:29;98819.00;;;9.70
20058;BMP180;10189;49.546;7.906;2024-03-22T00:50:54;98818.00;;;9.70
20058;BMP180;10189;49.546;7.906;2024-03-22T00:53:20;98804.00;;;9.70
20058;BMP180;10189;49.546;7.906;2024-03-22T00:55:46;98801.00;;;9.70
20058;BMP180;10189;49.546;7.906;2024-03-22T00:58:18;98803.00;;;9.70
20058;BMP180;10189;49.546;7.906;2024-03-22T01:00:45;98801.00;;;9.60
20058;BMP180;10189;49.546;7.906;2024-03-22T01:03:11;98800.00;;;9.60
20058;BMP180;10189;49.546;7.906;2024-03-22T01:05:37;98797.00;;;9.60
20058;BMP180;10189;49.546;7.906;2024-03-22T01:08:03;98784.00;;;9.70
20058;BMP180;10189;49.546;7.906;2024-03-22T01:10:30;98784.00;;;9.70
20058;BMP180;10189;49.546;7.906;2024-03-22T01:12:56;98778.00;;;9.70
20058;BMP180;10189;49.546;7.906;2024-03-22T01:15:22;98791.00;;;9.70
20058;BMP180;10189;49.546;7.906;2024-03-22T01:17:48;98779.00;;;9.60
20058;BMP180;10189;49.546;7.906;2024-03-22T01:20:14;98778.00;;;9.60
20058;BMP180;10189;49.546;7.906;2024-03-22T01:22:40;98781.00;;;9.50
20058;BMP180;10189;49.546;7.906;2024-03-22T01:25:06;98781.00;;;9.60
20058;BMP180;10189;49.546;7.906;2024-03-22T01:27:32;98781.00;;;9.50
20058;BMP180;10189;49.546;7.906;2024-03-22T01:29:58;98768.00;;;9.50
20058;BMP180;10189;49.546;7.906;2024-03-22T01:32:24;98769.00;;;9.50
20058;BMP180;10189;49.546;7.906;2024-03-22T01:34:50;98761.00;;;9.50
20058;BMP180;10189;49.546;7.906;2024-03-22T01:37:16;98762.00;;;9.50
20058;BMP180;10189;49.546;7.906;2024-03-22T01:39:42;98767.00;;;9.50
20058;BMP180;10189;49.546;7.906;2024-03-22T01:42:08;98770.00;;;9.50
20058;BMP180;10189;49.546;7.906;2024-03-22T01:44:34;98763.00;;;9.50
20058;BMP180;10189;49.546;7.906;2024-03-22T01:47:00;98764.00;;;9.50
20058;BMP180;10189;49.546;7.906;2024-03-22T01:49:27;98769.00;;;9.50
20058;BMP180;10189;49.546;7.906;2024-03-22T01:51:53;98764.00;;;9.50
20058;BMP180;10189;49.546;7.906;2024-03-22T01:54:20;98768.00;;;9.50
20058;BMP180;10189;49.546;7.906;2024-03-22T01:56:47;98764.00;;;9.50
20058;BMP180;10189;49.546;7.906;2024-03-22T01:59:13;98771.00;;;9.50
20058;BMP180;10189;49.546;7.906;2024-03-22T02:01:40;98762.00;;;9.40
20058;BMP180;10189;49.546;7.906;2024-03-22T02:04:06;98770.00;;;9.40
20058;BMP180;10189;49.546;7.906;2024-03-22T02:06:33;98767.00;;;9.30
20058;BMP180;10189;49.546;7.906;2024-03-22T02:08:59;98774.00;;;9.20
20058;BMP180;10189;49.546;7.906;2024-03-22T02:11:26;98768.00;;;9.20
20058;BMP180;10189;49.546;7.906;2024-03-22T02:13:53;98767.00;;;9.10
20058;BMP180;10189;49.546;7.906;2024-03-22T02:16:19;98758.00;;;9.20
20058;BMP180;10189;49.546;7.906;2024-03-22T02:18:45;98752.00;;;9.10
20058;BMP180;10189;49.546;7.906;2024-03-22T02:21:11;98755.00;;;9.10
20058;BMP180;10189;49.546;7.906;2024-03-22T02:23:39;98743.00;;;9.10
20058;BMP180;10189;49.546;7.906;2024-03-22T02:26:07;98728.00;;;9.10
20058;BMP180;10189;49.546;7.906;2024-03-22T02:28:34;98733.00;;;9.20
20058;BMP180;10189;49.546;7.906;2024-03-22T02:31:00;98730.00;;;9.30
20058;BMP180;10189;49.546;7.906;2024-03-22T02:33:26;98732.00;;;9.40
20058;BMP180;10189;49.546;7.906;2024-03-22T02:35:52;98731.00;;;9.50
20058;BMP180;10189;49.546;7.906;2024-03-22T02:38:19;98730.00;;;9.60
20058;BMP180;10189;49.546;7.906;2024-03-22T02:40:46;98723.00;;;9.80
20058;BMP180;10189;49.546;7.906;2024-03-22T02:43:12;98722.00;;;9.90
20058;BMP180;10189;49.546;7.906;2024-03-22T02:45:38;98712.00;;;10.10
20058;BMP180;10189;49.546;7.906;2024-03-22T02:48:05;98706.00;;;10.10
20058;BMP180;10189;49.546;7.906;2024-03-22T02:50:35;98695.00;;;10.20
20058;BMP180;10189;49.546;7.906;2024-03-22T02:53:01;98697.00;;;10.30
20058;BMP180;10189;49.546;7.906;2024-03-22T02:55:27;98695.00;;;10.40
20058;BMP180;10189;49.546;7.906;2024-03-22T02:57:53;98692.00;;;10.50
20058;BMP180;10189;49.546;7.906;2024-03-22T03:00:19;98691.00;;;10.60
20058;BMP180;10189;49.546;7.906;2024-03-22T03:02:46;98690.00;;;10.60
20058;BMP180;10189;49.546;7.906;2024-03-22T03:05:11;98687.00;;;10.60
20058;BMP180;10189;49.546;7.906;2024-03-22T03:07:37;98680.00;;;10.70
20058;BMP180;10189;49.546;7.906;2024-03-22T03:10:04;98680.00;;;10.60
20058;BMP180;10189;49.546;7.906;2024-03-22T03:12:30;98680.00;;;10.70
20058;BMP180;10189;49.546;7.906;2024-03-22T03:14:56;98690.00;;;10.60
20058;BMP180;10189;49.546;7.906;2024-03-22T03:17:22;98688.00;;;10.30
20058;BMP180;10189;49.546;7.906;2024-03-22T03:19:49;98682.00;;;10.30
20058;BMP180;10189;49.546;7.906;2024-03-22T03:22:15;98695.00;;;10.10
20058;BMP180;10189;49.546;7.906;2024-03-22T03:24:41;98699.00;;;10.00
20058;BMP180;10189;49.546;7.906;2024-03-22T03:27:07;98693.00;;;9.80
20058;BMP180;10189;49.546;7.906;2024-03-22T03:29:33;98699.00;;;9.70
20058;BMP180;10189;49.546;7.906;2024-03-22T03:31:59;98693.00;;;9.70
20058;BMP180;10189;49.546;7.906;2024-03-22T03:34:25;98689.00;;;9.60
20058;BMP180;10189;49.546;7.906;2024-03-22T03:36:51;98696.00;;;9.50
20058;BMP180;10189;49.546;7.906;2024-03-22T03:39:17;98692.00;;;9.50
20058;BMP180;10189;49.546;7.906;2024-03-22T03:41:42;98697.00;;;9.40
20058;BMP180;10189;49.546;7.906;2024-03-22T03:44:08;98687.00;;;9.40
20058;BMP180;10189;49.546;7.906;2024-03-22T03:46:34;98685.00;;;9.40
20058;BMP180;10189;49.546;7.906;2024-03-22T03:49:00;98678.00;;;9.40
20058;BMP180;10189;49.546;7.906;2024-03-22T03:51:26;98686.00;;;9.50
20058;BMP180;10189;49.546;7.906;2024-03-22T03:53:52;98671.00;;;9.50
20058;BMP180;10189;49.546;7.906;2024-03-22T03:56:18;98674.00;;;9.60
20058;BMP180;10189;49.546;7.906;2024-03-22T03:58:46;98656.00;;;9.70
20058;BMP180;10189;49.546;7.906;2024-03-22T04:01:12;98667.00;;;9.80
20058;BMP180;10189;49.546;7.906;2024-03-22T04:03:38;98656.00;;;9.80
20058;BMP180;10189;49.546;7.906;2024-03-22T04:06:04;98656.00;;;10.00
20058;BMP180;10189;49.546;7.906;2024-03-22T04:08:32;98661.00;;;10.00
20058;BMP180;10189;49.546;7.906;2024-03-22T04:10:58;98663.00;;;10.00
20058;BMP180;10189;49.546;7.906;2024-03-22T04:13:25;98661.00;;;10.00
20058;BMP180;10189;49.546;7.906;2024-03-22T04:15:51;98663.00;;;10.00
20058;BMP180;10189;49.546;7.906;2024-03-22T04:18:17;98663.00;;;10.00
20058;BMP180;10189;49.546;7.906;2024-03-22T04:20:53;98656.00;;;10.00
20058;BMP180;10189;49.546;7.906;2024-03-22T04:23:20;98651.00;;;10.00
20058;BMP180;10189;49.546;7.906;2024-03-22T04:26:00;98643.00;;;10.00
20058;BMP180;10189;49.546;7.906;2024-03-22T04:28:30;98645.00;;;10.10
20058;BMP180;10189;49.546;7.906;2024-03-22T04:30:56;98639.00;;;10.00
20058;BMP180;10189;49.546;7.906;2024-03-22T04:33:22;98637.00;;;10.10
20058;BMP180;10189;49.546;7.906;2024-03-22T04:35:48;98639.00;;;10.20
20058;BMP180;10189;49.546;7.906;2024-03-22T04:38:14;98628.00;;;10.20
20058;BMP180;10189;49.546;7.906;2024-03-22T04:40:41;98645.00;;;10.30
20058;BMP180;10189;49.546;7.906;2024-03-22T04:43:07;98643.00;;;10.30
20058;BMP180;10189;49.546;7.906;2024-03-22T04:45:33;98648.00;;;10.30
20058;BMP180;10189;49.546;7.906;2024-03-22T04:48:03;98649.00;;;10.40
20058;BMP180;10189;49.546;7.906;2024-03-22T04:50:29;98634.00;;;10.40
20058;BMP180;10189;49.546;7.906;2024-03-22T04:52:55;98641.00;;;10.40
20058;BMP180;10189;49.546;7.906;2024-03-22T04:55:20;98642.00;;;10.40
20058;BMP180;10189;49.546;7.906;2024-03-22T04:57:46;98634.00;;;10.40
20058;BMP180;10189;49.546;7.906;2024-03-22T05:00:13;98632.00;;;10.40
20058;BMP180;10189;49.546;7.906;2024-03-22T05:02:40;98643.00;;;10.50
20058;BMP180;10189;49.546;7.906;2024-03-22T05:05:06;98629.00;;;10.50
20058;BMP180;10189;49.546;7.906;2024-03-22T05:07:33;98623.00;;;10.60
20058;BMP180;10189;49.546;7.906;2024-03-22T05:09:59;98625.00;;;10.60
20058;BMP180;10189;49.546;7.906;2024-03-22T05:12:25;98640.00;;;10.60
20058;BMP180;10189;49.546;7.906;2024-03-22T05:14:51;98634.00;;;10.70
20058;BMP180;10189;49.546;7.906;2024-03-22T05:17:17;98640.00;;;10.60
20058;BMP180;10189;49.546;7.906;2024-03-22T05:19:43;98646.00;;;10.60
20058;BMP180;10189;49.546;7.906;2024-03-22T05:22:09;98650.00;;;10.60
20058;BMP180;10189;49.546;7.906;2024-03-22T05:24:35;98643.00;;;10.70
20058;BMP180;10189;49.546;7.906;2024-03-22T05:27:01;98647.00;;;10.70
20058;BMP180;10189;49.546;7.906;2024-03-22T05:29:27;98644.00;;;10.70
20058;BMP180;10189;49.546;7.906;2024-03-22T05:31:52;98641.00;;;10.70
20058;BMP180;10189;49.546;7.906;2024-03-22T05:34:18;98634.00;;;10.80
20058;BMP180;10189;49.546;7.906;2024-03-22T05:36:46;98628.00;;;10.70
20058;BMP180;10189;49.546;7.906;2024-03-22T05:39:12;98624.00;;;10.80
20058;BMP180;10189;49.546;7.906;2024-03-22T05:41:38;98622.00;;;10.80
20058;BMP180;10189;49.546;7.906;2024-03-22T05:44:05;98625.00;;;10.80
20058;BMP180;10189;49.546;7.906;2024-03-22T05:46:31;98624.00;;;10.80
20058;BMP180;10189;49.546;7.906;2024-03-22T05:49:00;98623.00;;;10.80
20058;BMP180;10189;49.546;7.906;2024-03-22T05:51:26;98625.00;;;10.80
20058;BMP180;10189;49.546;7.906;2024-03-22T05:53:52;98622.00;;;10.80
20058;BMP180;10189;49.546;7.906;2024-03-22T05:56:19;98625.00;;;10.90
20058;BMP180;10189;49.546;7.906;2024-03-22T05:58:45;98617.00;;;11.00
20058;BMP180;10189;49.546;7.906;2024-03-22T06:01:11;98614.00;;;11.00
20058;BMP180;10189;49.546;7.906;2024-03-22T06:03:37;98611.00;;;11.10
20058;BMP180;10189;49.546;7.906;2024-03-22T06:06:03;98610.00;;;11.20
20058;BMP180;10189;49.546;7.906;2024-03-22T06:08:29;98605.00;;;11.30
20058;BMP180;10189;49.546;7.906;2024-03-22T06:10:57;98604.00;;;11.40
20058;BMP180;10189;49.546;7.906;2024-03-22T06:13:23;98605.00;;;11.60
20058;BMP180;10189;49.546;7.906;2024-03-22T06:15:50;98594.00;;;11.80
20058;BMP180;10189;49.546;7.906;2024-03-22T06:18:16;98599.00;;;12.00
20058;BMP180;10189;49.546;7.906;2024-03-22T06:20:43;98591.00;;;12.20
20058;BMP180;10189;49.546;7.906;2024-03-22T06:23:09;98588.00;;;12.50
20058;BMP180;10189;49.546;7.906;2024-03-22T06:25:36;98582.00;;;12.60
20058;BMP180;10189;49.546;7.906;2024-03-22T06:28:02;98581.00;;;12.70
20058;BMP180;10189;49.546;7.906;2024-03-22T06:30:28;98581.00;;;12.80
20058;BMP180;10189;49.546;7.906;2024-03-22T06:32:54;98569.00;;;12.80
20058;BMP180;10189;49.546;7.906;2024-03-22T06:35:21;98571.00;;;12.80
20058;BMP180;10189;49.546;7.906;2024-03-22T06:37:48;98566.00;;;13.00
20058;BMP180;10189;49.546;7.906;2024-03-22T06:40:16;98570.00;;;12.90
20058;BMP180;10189;49.546;7.906;2024-03-22T06:42:42;98558.00;;;13.00
20058;BMP180;10189;49.546;7.906;2024-03-22T06:45:08;98567.00;;;13.10
20058;BMP180;10189;49.546;7.906;2024-03-22T06:47:34;98566.00;;;13.10
20058;BMP180;10189;49.546;7.906;2024-03-22T06:50:00;98569.00;;;13.20
20058;BMP180;10189;49.546;7.906;2024-03-22T06:52:25;98568.00;;;13.10
20058;BMP180;10189;49.546;7.906;2024-03-22T06:54:52;98562.00;;;13.10
20058;BMP180;10189;49.546;7.906;2024-03-22T06:57:19;98564.00;;;13.30
20058;BMP180;10189;49.546;7.906;2024-03-22T06:59:45;98561.00;;;13.40
20058;BMP180;10189;49.546;7.906;2024-03-22T07:02:11;98549.00;;;13.50
20058;BMP180;10189;49.546;7.906;2024-03-22T07:04:38;98568.00;;;13.60
20058;BMP180;10189;49.546;7.906;2024-03-22T07:07:04;98562.00;;;13.50
20058;BMP180;10189;49.546;7.906;2024-03-22T07:09:33;98561.00;;;13.70
20058;BMP180;10189;49.546;7.906;2024-03-22T07:12:00;98558.00;;;13.80
20058;BMP180;10189;49.546;7.906;2024-03-22T07:14:26;98553.00;;;13.70
20058;BMP180;10189;49.546;7.906;2024-03-22T07:16:52;98548.00;;;13.60
20058;BMP180;10189;49.546;7.906;2024-03-22T07:19:21;98549.00;;;13.60
20058;BMP180;10189;49.546;7.906;2024-03-22T07:21:47;98543.00;;;13.70
20058;BMP180;10189;49.546;7.906;2024-03-22T07:24:14;98543.00;;;13.80
20058;BMP180;10189;49.546;7.906;2024-03-22T07:26:40;98546.00;;;13.80
20058;BMP180;10189;49.546;7.906;2024-03-22T07:29:06;98540.00;;;13.90
20058;BMP180;10189;49.546;7.906;2024-03-22T07:31:32;98541.00;;;14.10
20058;BMP180;10189;49.546;7.906;2024-03-22T07:33:58;98527.00;;;14.20
20058;BMP180;10189;49.546;7.906;2024-03-22T07:36:24;98540.00;;;14.10
20058;BMP180;10189;49.546;7.906;2024-03-22T07:38:52;98534.00;;;14.00
20058;BMP180;10189;49.546;7.906;2024-03-22T07:41:18;98535.00;;;14.10
20058;BMP180;10189;49.546;7.906;2024-03-22T07:43:44;98537.00;;;14.10
20058;BMP180;10189;49.546;7.906;2024-03-22T07:46:10;98530.00;;;14.00
20058;BMP180;10189;49.546;7.906;2024-03-22T07:48:36;98526.00;;;14.00
20058;BMP180;10189;49.546;7.906;2024-03-22T07:51:02;98525.00;;;13.90
20058;BMP180;10189;49.546;7.906;2024-03-22T07:53:29;98525.00;;;13.90
20058;BMP180;10189;49.546;7.906;2024-03-22T07:55:55;98526.00;;;13.90
20058;BMP180;10189;49.546;7.906;2024-03-22T07:58:21;98525.00;;;13.70
20058;BMP180;10189;49.546;7.906;2024-03-22T08:00:47;98520.00;;;13.60
20058;BMP180;10189;49.546;7.906;2024-03-22T08:03:15;98519.00;;;13.80
20058;BMP180;10189;49.546;7.906;2024-03-22T08:05:42;98520.00;;;13.70
20058;BMP180;10189;49.546;7.906;2024-03-22T08:08:08;98520.00;;;13.80
20058;BMP180;10189;49.546;7.906;2024-03-22T08:10:34;98515.00;;;13.80
20058;BMP180;10189;49.546;7.906;2024-03-22T08:13:00;98512.00;;;13.80
20058;BMP180;10189;49.546;7.906;2024-03-22T08:15:29;98508.00;;;13.90
20058;BMP180;10189;49.546;7.906;2024-03-22T08:17:55;98495.00;;;14.00
20058;BMP180;10189;49.546;7.906;2024-03-22T08:20:24;98500.00;;;13.90
20058;BMP180;10189;49.546;7.906;2024-03-22T08:22:50;98490.00;;;14.20
20058;BMP180;10189;49.546;7.906;2024-03-22T08:25:16;98494.00;;;14.30
20058;BMP180;10189;49.546;7.906;2024-03-22T08:27:44;98494.00;;;14.20
20058;BMP180;10189;49.546;7.906;2024-03-22T08:30:11;98489.00;;;14.40
20058;BMP180;10189;49.546;7.906;2024-03-22T08:32:37;98486.00;;;14.60
20058;BMP180;10189;49.546;7.906;2024-03-22T08:35:04;98474.00;;;14.70
20058;BMP180;10189;49.546;7.906;2024-03-22T08:37:31;98472.00;;;14.60
20058;BMP180;10189;49.546;7.906;2024-03-22T08:39:57;98474.00;;;14.60
20058;BMP180;10189;49.546;7.906;2024-03-22T08:42:23;98473.00;;;14.70
20058;BMP180;10189;49.546;7.906;2024-03-22T08:44:49;98462.00;;;14.70
20058;BMP180;10189;49.546;7.906;2024-03-22T08:47:15;98472.00;;;14.70
20058;BMP180;10189;49.546;7.906;2024-03-22T08:49:41;98471.00;;;14.80
20058;BMP180;10189;49.546;7.906;2024-03-22T08:52:11;98477.00;;;14.80
20058;BMP180;10189;49.546;7.906;2024-03-22T08:54:37;98456.00;;;15.00
20058;BMP180;10189;49.546;7.906;2024-03-22T08:57:03;98463.00;;;15.00
20058;BMP180;10189;49.546;7.906;2024-03-22T08:59:29;98453.00;;;15.20
20058;BMP180;10189;49.546;7.906;2024-03-22T09:01:55;98461.00;;;15.00
20058;BMP180;10189;49.546;7.906;2024-03-22T09:04:21;98448.00;;;15.30
20058;BMP180;10189;49.546;7.906;2024-03-22T09:06:47;98455.00;;;15.40
20058;BMP180;10189;49.546;7.906;2024-03-22T09:09:13;98456.00;;;15.60
20058;BMP180;10189;49.546;7.906;2024-03-22T09:11:39;98449.00;;;16.00
20058;BMP180;10189;49.546;7.906;2024-03-22T09:14:04;98449.00;;;15.90
20058;BMP180;10189;49.546;7.906;2024-03-22T09:16:30;98438.00;;;15.80
20058;BMP180;10189;49.546;7.906;2024-03-22T09:18:56;98437.00;;;16.20
20058;BMP180;10189;49.546;7.906;2024-03-22T09:21:23;98435.00;;;16.30
20058;BMP180;10189;49.546;7.906;2024-03-22T09:23:53;98435.00;;;16.40
20058;BMP180;10189;49.546;7.906;2024-03-22T09:26:22;98425.00;;;16.70
20058;BMP180;10189;49.546;7.906;2024-03-22T09:28:52;98421.00;;;16.40
20058;BMP180;10189;49.546;7.906;2024-03-22T09:31:20;98425.00;;;16.30
20058;BMP180;10189;49.546;7.906;2024-03-22T09:33:47;98421.00;;;16.60
20058;BMP180;10189;49.546;7.906;2024-03-22T09:36:14;98416.00;;;16.90
20058;BMP180;10189;49.546;7.906;2024-03-22T09:38:41;98420.00;;;16.60
20058;BMP180;10189;49.546;7.906;2024-03-22T09:41:07;98415.00;;;16.70
20058;BMP180;10189;49.546;7.906;2024-03-22T09:43:34;98411.00;;;16.50
20058;BMP180;10189;49.546;7.906;2024-03-22T09:46:01;98405.00;;;16.40
20058;BMP180;10189;49.546;7.906;2024-03-22T09:48:29;98412.00;;;16.40
20058;BMP180;10189;49.546;7.906;2024-03-22T09:50:56;98400.00;;;16.40
20058;BMP180;10189;49.546;7.906;2024-03-22T09:53:22;98410.00;;;16.30
20058;BMP180;10189;49.546;7.906;2024-03-22T09:55:49;98405.00;;;16.60
20058;BMP180;10189;49.546;7.906;2024-03-22T09:58:17;98390.00;;;16.80
20058;BMP180;10189;49.546;7.906;2024-03-22T10:00:43;98391.00;;;16.80
20058;BMP180;10189;49.546;7.906;2024-03-22T10:03:10;98387.00;;;16.70
20058;BMP180;10189;49.546;7.906;2024-03-22T10:05:37;98396.00;;;16.80
20058;BMP180;10189;49.546;7.906;2024-03-22T10:08:04;98382.00;;;16.70
20058;BMP180;10189;49.546;7.906;2024-03-22T10:10:33;98380.00;;;16.80
20058;BMP180;10189;49.546;7.906;2024-03-22T10:13:04;98382.00;;;16.90
20058;BMP180;10189;49.546;7.906;2024-03-22T10:15:32;98369.00;;;17.00
20058;BMP180;10189;49.546;7.906;2024-03-22T10:17:58;98368.00;;;16.90
20058;BMP180;10189;49.546;7.906;2024-03-22T10:20:24;98369.00;;;17.10
20058;BMP180;10189;49.546;7.906;2024-03-22T10:22:58;98365.00;;;17.10
20058;BMP180;10189;49.546;7.906;2024-03-22T10:25:28;98356.00;;;17.00
20058;BMP180;10189;49.546;7.906;2024-03-22T10:27:55;98365.00;;;17.30
20058;BMP180;10189;49.546;7.906;2024-03-22T10:30:23;98355.00;;;17.40
20058;BMP180;10189;49.546;7.906;2024-03-22T10:32:50;98355.00;;;17.60
20058;BMP180;10189;49.546;7.906;2024-03-22T10:35:17;98350.00;;;17.90
20058;BMP180;10189;49.546;7.906;2024-03-22T10:37:44;98340.00;;;18.10
20058;BMP180;10189;49.546;7.906;2024-03-22T10:40:10;98333.00;;;18.50
20058;BMP180;10189;49.546;7.906;2024-03-22T10:42:41;98336.00;;;18.60
20058;BMP180;10189;49.546;7.906;2024-03-22T10:45:10;98328.00;;;18.70
20058;BMP180;10189;49.546;7.906;2024-03-22T10:47:37;98330.00;;;18.30
20058;BMP180;10189;49.546;7.906;2024-03-22T10:50:09;98321.00;;;18.40
20058;BMP180;10189;49.546;7.906;2024-03-22T10:53:04;98316.00;;;18.20
20058;BMP180;10189;49.546;7.906;2024-03-22T10:55:38;98319.00;;;18.20
20058;BMP180;10189;49.546;7.906;2024-03-22T10:58:07;98306.00;;;18.40
20058;BMP180;10189;49.546;7.906;2024-03-22T11:00:42;98312.00;;;18.40
20058;BMP180;10189;49.546;7.906;2024-03-22T11:03:09;98303.00;;;18.20
20058;BMP180;10189;49.546;7.906;2024-03-22T11:05:48;98301.00;;;18.30
20058;BMP180;10189;49.546;7.906;2024-03-22T11:08:27;98296.00;;;18.70
20058;BMP180;10189;49.546;7.906;2024-03-22T11:10:56;98289.00;;;18.90
20058;BMP180;10189;49.546;7.906;2024-03-22T11:13:23;98281.00;;;19.00
20058;BMP180;10189;49.546;7.906;2024-03-22T11:15:52;98275.00;;;19.10
20058;BMP180;10189;49.546;7.906;2024-03-22T11:18:18;98271.00;;;19.20
20058;BMP180;10189;49.546;7.906;2024-03-22T11:20:44;98268.00;;;18.90
20058;BMP180;10189;49.546;7.906;2024-03-22T11:23:13;98265.00;;;18.80
20058;BMP180;10189;49.546;7.906;2024-03-22T11:25:39;98264.00;;;18.90
20058;BMP180;10189;49.546;7.906;2024-03-22T11:28:05;98257.00;;;18.80
20058;BMP180;10189;49.546;7.906;2024-03-22T11:30:35;98266.00;;;18.80
20058;BMP180;10189;49.546;7.906;2024-03-22T11:33:05;98255.00;;;19.00
20058;BMP180;10189;49.546;7.906;2024-03-22T11:35:34;98244.00;;;18.90
20058;BMP180;10189;49.546;7.906;2024-03-22T11:38:00;98247.00;;;19.10
20058;BMP180;10189;49.546;7.906;2024-03-22T11:40:27;98236.00;;;18.90
20058;BMP180;10189;49.546;7.906;2024-03-22T11:42:57;98232.00;;;19.50
20058;BMP180;10189;49.546;7.906;2024-03-22T11:45:24;98237.00;;;19.30
20058;BMP180;10189;49.546;7.906;2024-03-22T11:47:51;98227.00;;;18.90
20058;BMP180;10189;49.546;7.906;2024-03-22T11:50:18;98235.00;;;18.70
20058;BMP180;10189;49.546;7.906;2024-03-22T11:52:44;98223.00;;;19.20
20058;BMP180;10189;49.546;7.906;2024-03-22T11:55:13;98204.00;;;19.50
20058;BMP180;10189;49.546;7.906;2024-03-22T11:57:40;98213.00;;;19.40
20058;BMP180;10189;49.546;7.906;2024-03-22T12:00:07;98211.00;;;19.60
20058;BMP180;10189;49.546;7.906;2024-03-22T12:02:41;98208.00;;;19.70
20058;BMP180;10189;49.546;7.906;2024-03-22T12:05:07;98209.00;;;19.70
20058;BMP180;10189;49.546;7.906;2024-03-22T12:07:35;98200.00;;;19.50
20058;BMP180;10189;49.546;7.906;2024-03-22T12:10:01;98204.00;;;19.50
20058;BMP180;10189;49.546;7.906;2024-03-22T12:12:27;98208.00;;;19.20
20058;BMP180;10189;49.546;7.906;2024-03-22T12:14:53;98200.00;;;19.60
20058;BMP180;10189;49.546;7.906;2024-03-22T12:17:19;98194.00;;;19.90
20058;BMP180;10189;49.546;7.906;2024-03-22T12:19:45;98198.00;;;20.30
20058;BMP180;10189;49.546;7.906;2024-03-22T12:22:11;98194.00;;;20.00
20058;BMP180;10189;49.546;7.906;2024-03-22T12:24:37;98186.00;;;20.20
20058;BMP180;10189;49.546;7.906;2024-03-22T12:27:03;98185.00;;;20.60
20058;BMP180;10189;49.546;7.906;2024-03-22T12:29:32;98184.00;;;20.80
20058;BMP180;10189;49.546;7.906;2024-03-22T12:31:59;98182.00;;;20.60
20058;BMP180;10189;49.546;7.906;2024-03-22T12:34:30;98177.00;;;20.50
20058;BMP180;10189;49.546;7.906;2024-03-22T12:36:57;98171.00;;;20.50
20058;BMP180;10189;49.546;7.906;2024-03-22T12:39:23;98163.00;;;20.40
20058;BMP180;10189;49.546;7.906;2024-03-22T12:41:49;98166.00;;;20.30
20058;BMP180;10189;49.546;7.906;2024-03-22T12:44:15;98163.00;;;20.40
20058;BMP180;10189;49.546;7.906;2024-03-22T12:46:41;98167.00;;;20.70
20058;BMP180;10189;49.546;7.906;2024-03-22T12:49:09;98159.00;;;20.80
20058;BMP180;10189;49.546;7.906;2024-03-22T12:51:38;98152.00;;;21.10
20058;BMP180;10189;49.546;7.906;2024-03-22T12:54:04;98154.00;;;20.80
20058;BMP180;10189;49.546;7.906;2024-03-22T12:56:31;98146.00;;;20.50
20058;BMP180;10189;49.546;7.906;2024-03-22T12:58:59;98152.00;;;20.40
20058;BMP180;10189;49.546;7.906;2024-03-22T13:01:26;98148.00;;;20.20
20058;BMP180;10189;49.546;7.906;2024-03-22T13:03:52;98141.00;;;20.30
20058;BMP180;10189;49.546;7.906;2024-03-22T13:06:18;98138.00;;;20.50
20058;BMP180;10189;49.546;7.906;2024-03-22T13:08:44;98134.00;;;20.50
20058;BMP180;10189;49.546;7.906;2024-03-22T13:11:10;98132.00;;;20.30
20058;BMP180;10189;49.546;7.906;2024-03-22T13:13:36;98128.00;;;20.40
20058;BMP180;10189;49.546;7.906;2024-03-22T13:16:03;98120.00;;;20.30
20058;BMP180;10189;49.546;7.906;2024-03-22T13:18:29;98124.00;;;20.30
20058;BMP180;10189;49.546;7.906;2024-03-22T13:20:55;98105.00;;;20.10
20058;BMP180;10189;49.546;7.906;2024-03-22T13:23:22;98108.00;;;19.90
20058;BMP180;10189;49.546;7.906;2024-03-22T13:25:48;98107.00;;;20.10
20058;BMP180;10189;49.546;7.906;2024-03-22T13:28:14;98100.00;;;20.00
20058;BMP180;10189;49.546;7.906;2024-03-22T13:30:40;98098.00;;;20.00
20058;BMP180;10189;49.546;7.906;2024-03-22T13:33:07;98096.00;;;19.90
20058;BMP180;10189;49.546;7.906;2024-03-22T13:35:34;98092.00;;;19.60
20058;BMP180;10189;49.546;7.906;2024-03-22T13:38:00;98091.00;;;19.70
20058;BMP180;10189;49.546;7.906;2024-03-22T13:40:26;98084.00;;;19.70
20058;BMP180;10189;49.546;7.906;2024-03-22T13:42:55;98084.00;;;19.60
20058;BMP180;10189;49.546;7.906;2024-03-22T13:45:21;98071.00;;;19.40
20058;BMP180;10189;49.546;7.906;2024-03-22T13:47:47;98079.00;;;19.30
20058;BMP180;10189;49.546;7.906;2024-03-22T13:50:13;98074.00;;;19.50
20058;BMP180;10189;49.546;7.906;2024-03-22T13:52:39;98070.00;;;19.50
20058;BMP180;10189;49.546;7.906;2024-03-22T13:55:06;98072.00;;;19.30
20058;BMP180;10189;49.546;7.906;2024-03-22T13:57:32;98067.00;;;19.40
20058;BMP180;10189;49.546;7.906;2024-03-22T13:59:59;98059.00;;;19.00
20058;BMP180;10189;49.546;7.906;2024-03-22T14:02:24;98054.00;;;18.90
20058;BMP180;10189;49.546;7.906;2024-03-22T14:04:50;98053.00;;;19.00
20058;BMP180;10189;49.546;7.906;2024-03-22T14:07:16;98052.00;;;18.90
20058;BMP180;10189;49.546;7.906;2024-03-22T14:09:43;98051.00;;;18.80